Time;durP1;ratioP1;P1;durP2;ratioP2;P2;SDS_P1;SDS_P2;PMS_P1;PMS_P2;Temp;Humidity;BMP_temperature;BMP_pressure;BME280_temperature;BME280_humidity;BME280_pressure;Samples;Min_cycle;Max_cycle;Signal;HPM_P1;HPM_P2
2023/10/04 00:08:23;;;;;;;2.13;0.90;;;;;;;19.06;84.03;101867.97;20826267;28;20130;-66
2023/10/04 00:18:25;;;;;;;1.17;0.70;;;;;;;19.04;84.35;101880.72;20817850;28;20145;-66
2023/10/04 00:28:26;;;;;;;2.28;1.10;;;;;;;19.01;84.17;101894.47;20818315;28;20041;-66
2023/10/04 00:38:28;;;;;;;1.52;0.80;;;;;;;18.98;84.25;101899.09;20823056;28;20060;-66
2023/10/04 00:48:34;;;;;;;1.38;0.77;;;;;;;18.98;83.86;101896.38;20785155;28;20418;-66
2023/10/04 00:58:37;;;;;;;1.55;0.95;;;;;;;18.96;84.10;101903.72;20817036;28;20053;-65
2023/10/04 01:08:39;;;;;;;1.70;0.88;;;;;;;18.95;83.80;101907.38;20796346;28;20112;-66
2023/10/04 01:18:44;;;;;;;1.48;0.75;;;;;;;18.84;83.82;101892.06;20812311;28;20053;-66
2023/10/04 01:28:47;;;;;;;2.40;1.00;;;;;;;18.91;83.99;101916.69;20787489;28;20139;-66
2023/10/04 01:38:48;;;;;;;1.55;1.08;;;;;;;18.90;84.00;101924.94;20799964;28;20083;-66
2023/10/04 01:48:51;;;;;;;2.78;1.17;;;;;;;18.88;83.72;101919.63;20781618;28;20053;-66
2023/10/04 01:58:54;;;;;;;2.17;0.75;;;;;;;18.87;83.84;101904.44;20806302;28;20061;-66
2023/10/04 02:08:56;;;;;;;1.70;0.73;;;;;;;18.83;83.64;101913.75;20813285;28;20049;-66
2023/10/04 02:18:59;;;;;;;2.53;0.70;;;;;;;18.86;83.73;101912.66;20804230;28;20060;-66
2023/10/04 02:29:00;;;;;;;1.77;0.80;;;;;;;18.82;83.70;101910.19;20802324;28;20108;-66
2023/10/04 02:39:11;;;;;;;1.83;0.90;;;;;;;18.80;83.66;101922.94;20801872;28;20148;-66
2023/10/04 02:49:13;;;;;;;1.88;0.68;;;;;;;18.82;83.12;101923.69;20804024;28;20299;-66
2023/10/04 02:59:16;;;;;;;3.65;0.85;;;;;;;18.82;83.28;101929.09;20803095;28;20044;-66
2023/10/04 03:09:21;;;;;;;1.85;0.80;;;;;;;18.83;83.33;101938.03;20783030;28;20050;-66
2023/10/04 03:19:23;;;;;;;2.83;0.85;;;;;;;18.82;83.03;101945.28;20796112;28;20416;-66
2023/10/04 03:29:28;;;;;;;1.35;0.73;;;;;;;18.85;83.06;101952.25;20814318;28;20127;-66
2023/10/04 03:39:30;;;;;;;1.47;0.73;;;;;;;18.84;83.06;101942.44;20818280;28;20056;-66
2023/10/04 03:49:35;;;;;;;1.35;0.70;;;;;;;18.83;82.96;101956.91;20810532;28;20501;-66
2023/10/04 03:59:37;;;;;;;1.55;0.70;;;;;;;18.82;82.76;101969.56;20845543;28;20060;-66
2023/10/04 04:09:41;;;;;;;3.75;0.90;;;;;;;18.80;82.68;101976.03;20812595;28;20068;-66
2023/10/04 04:19:43;;;;;;;1.25;0.98;;;;;;;18.78;82.76;101977.97;20850306;28;20099;-66
2023/10/04 04:29:45;;;;;;;1.58;0.73;;;;;;;18.77;82.58;101976.25;20823652;28;20099;-66
2023/10/04 04:39:47;;;;;;;2.75;1.00;;;;;;;18.75;82.41;101978.22;20821334;28;20045;-66
2023/10/04 04:49:49;;;;;;;1.38;0.70;;;;;;;18.74;82.49;101981.88;20835185;28;20053;-66
2023/10/04 04:59:55;;;;;;;1.73;0.90;;;;;;;18.70;82.46;101971.34;20800425;28;20390;-66
2023/10/04 05:09:57;;;;;;;2.33;0.70;;;;;;;18.67;82.63;101952.69;20814237;28;20050;-66
2023/10/04 05:19:58;;;;;;;3.35;1.00;;;;;;;18.61;82.59;101961.25;20807978;28;20509;-64
2023/10/04 05:30:00;;;;;;;2.05;1.10;;;;;;;18.49;83.67;101984.59;20825489;28;20456;-63
2023/10/04 05:40:09;;;;;;;1.95;1.00;;;;;;;18.49;84.61;102003.47;20792079;28;20203;-64
2023/10/04 05:50:13;;;;;;;4.38;1.08;;;;;;;18.59;85.12;102022.53;20792011;28;20045;-64
2023/10/04 06:00:37;;;;;;;1.73;1.00;;;;;;;18.67;85.07;102035.41;20798572;28;20132;-65
2023/10/04 06:10:39;;;;;;;7.63;1.52;;;;;;;18.78;91.91;102045.41;20806271;28;20071;-64
2023/10/04 06:20:41;;;;;;;4.50;1.20;;;;;;;18.81;93.17;102054.16;20793682;28;20179;-64
2023/10/04 06:30:48;;;;;;;7.60;1.77;;;;;;;18.90;92.22;102063.38;20792330;28;20418;-63
2023/10/04 06:40:50;;;;;;;3.63;1.40;;;;;;;18.90;91.24;102074.19;20797333;28;20615;-64
2023/10/04 06:50:52;;;;;;;3.45;1.17;;;;;;;18.92;90.77;102083.00;20821220;28;20049;-64
2023/10/04 07:00:56;;;;;;;2.53;0.98;;;;;;;18.99;89.81;102099.66;20820132;28;20056;-63
2023/10/04 07:11:00;;;;;;;2.47;1.10;;;;;;;19.06;89.16;102089.28;20788634;28;20048;-64
2023/10/04 07:21:03;;;;;;;2.92;1.27;;;;;;;19.11;88.07;102097.88;20802835;28;20813;-64
2023/10/04 07:31:04;;;;;;;3.33;1.40;;;;;;;19.18;87.00;102119.84;20794100;28;20412;-64
2023/10/04 07:41:06;;;;;;;2.67;1.45;;;;;;;19.28;85.51;102116.34;20840906;28;20076;-65
2023/10/04 07:51:08;;;;;;;2.53;1.00;;;;;;;19.76;83.08;102136.16;20835903;28;20141;-64
2023/10/04 08:01:10;;;;;;;2.83;1.10;;;;;;;20.14;80.91;102129.66;20827322;28;20099;-65
2023/10/04 08:11:12;;;;;;;2.42;1.40;;;;;;;20.50;78.77;102128.69;20804754;28;20060;-66
2023/10/04 08:21:15;;;;;;;5.53;1.95;;;;;;;20.76;77.42;102125.69;20807030;28;20111;-65
2023/10/04 08:31:18;;;;;;;3.45;1.70;;;;;;;20.97;76.56;102132.09;20803877;28;20045;-66
2023/10/04 08:41:20;;;;;;;2.80;1.52;;;;;;;21.13;76.04;102144.34;20819001;28;20049;-66
2023/10/04 08:51:44;;;;;;;2.75;1.50;;;;;;;21.23;76.25;102141.72;20822615;28;20457;-68
2023/10/04 09:01:46;;;;;;;3.33;1.48;;;;;;;21.37;76.32;102148.69;20846786;28;20439;-71
2023/10/04 09:11:49;;;;;;;3.88;1.40;;;;;;;21.48;76.04;102150.50;20794999;28;20103;-70
2023/10/04 09:21:51;;;;;;;2.75;1.23;;;;;;;21.56;76.03;102146.13;20806299;28;20052;-69
2023/10/04 09:31:53;;;;;;;2.70;1.33;;;;;;;21.62;76.07;102152.03;20818612;28;20073;-71
2023/10/04 09:41:58;;;;;;;2.83;1.50;;;;;;;21.67;75.89;102149.84;20826228;28;20107;-71
2023/10/04 09:52:13;;;;;;;2.07;1.40;;;;;;;21.73;75.99;102139.31;20814048;28;20049;-70
2023/10/04 10:02:17;;;;;;;3.25;1.73;;;;;;;21.77;76.01;102145.34;20803118;28;20167;-67
2023/10/04 10:12:21;;;;;;;3.10;1.65;;;;;;;21.74;75.94;102137.47;20799643;28;20045;-68
2023/10/04 10:22:23;;;;;;;2.80;1.30;;;;;;;21.75;75.78;102141.03;20784339;28;20640;-68
2023/10/04 10:32:25;;;;;;;4.07;1.98;;;;;;;21.74;75.46;102142.91;20808436;28;20057;-68
2023/10/04 10:42:27;;;;;;;2.25;1.65;;;;;;;21.71;75.25;102137.75;20806539;28;20124;-68
2023/10/04 10:52:39;;;;;;;3.33;1.73;;;;;;;21.65;75.35;102157.22;20838016;28;20124;-68
2023/10/04 11:02:41;;;;;;;3.97;1.55;;;;;;;21.59;75.04;102159.44;20815196;28;20497;-68
2023/10/04 11:12:44;;;;;;;3.90;1.88;;;;;;;21.49;74.98;102155.78;20787330;28;20051;-66
2023/10/04 11:22:48;;;;;;;5.53;2.13;;;;;;;21.40;75.44;102152.00;20803121;28;20045;-65
2023/10/04 11:32:51;;;;;;;4.28;2.03;;;;;;;21.38;75.97;102150.41;20809745;28;20516;-64
2023/10/04 11:43:00;;;;;;;5.35;2.40;;;;;;;21.43;76.76;102130.09;20798670;28;20053;-64
2023/10/04 11:53:02;;;;;;;3.90;2.10;;;;;;;21.49;77.49;102122.44;20820631;28;20056;-64
2023/10/04 12:03:06;;;;;;;55.17;5.07;;;;;;;21.55;79.60;102109.19;20808096;28;20045;-66
2023/10/04 12:13:08;;;;;;;6.47;2.13;;;;;;;21.60;79.03;102106.09;20812900;28;20551;-65
2023/10/04 12:23:15;;;;;;;5.22;2.45;;;;;;;21.58;79.31;102098.09;20804602;28;20049;-64
2023/10/04 12:33:18;;;;;;;11.43;3.03;;;;;;;21.57;80.11;102101.78;20816449;28;20075;-63
2023/10/04 12:43:20;;;;;;;5.95;2.65;;;;;;;21.59;81.70;102099.81;20821201;28;20485;-62
2023/10/04 12:53:23;;;;;;;4.65;2.40;;;;;;;21.54;82.28;102090.38;20786933;28;20042;-62
2023/10/04 13:03:31;;;;;;;7.05;3.10;;;;;;;21.50;82.53;102083.50;20794553;28;20057;-62
2023/10/04 13:13:34;;;;;;;7.30;2.65;;;;;;;21.47;82.81;102090.03;20831702;28;20042;-62
2023/10/04 13:23:35;;;;;;;6.25;2.80;;;;;;;21.51;83.13;102080.66;20818819;28;20056;-62
2023/10/04 13:33:37;;;;;;;6.00;2.70;;;;;;;21.65;82.44;102065.06;20828472;28;20060;-61
2023/10/04 13:43:39;;;;;;;6.18;3.10;;;;;;;21.69;82.15;102058.44;20829689;28;20561;-61
2023/10/04 13:53:41;;;;;;;4.70;2.53;;;;;;;21.62;81.79;102054.47;20836073;28;20049;-63
2023/10/04 14:03:45;;;;;;;4.65;2.30;;;;;;;21.55;81.27;102051.44;20845231;28;20095;-62
2023/10/04 14:13:51;;;;;;;6.80;2.42;;;;;;;21.44;80.63;102047.81;20825312;28;20055;-61
2023/10/04 14:23:53;;;;;;;3.08;2.03;;;;;;;21.35;80.39;102047.75;20852447;28;20497;-62
2023/10/04 14:33:55;;;;;;;3.00;1.85;;;;;;;21.30;80.21;102030.03;20828453;28;20512;-62
2023/10/04 14:43:57;;;;;;;3.33;2.30;;;;;;;21.24;80.16;102021.56;20831669;28;20045;-62
2023/10/04 14:53:59;;;;;;;5.57;2.60;;;;;;;21.17;80.01;102007.69;20830748;28;21788;-61
2023/10/04 15:04:00;;;;;;;4.20;2.20;;;;;;;21.10;80.15;102004.66;20809777;28;20493;-61
2023/10/04 15:14:06;;;;;;;4.18;2.00;;;;;;;21.06;80.37;102010.47;20799206;28;20046;-61
2023/10/04 15:24:14;;;;;;;6.03;2.22;;;;;;;21.01;80.57;102003.59;20810378;28;20060;-62
2023/10/04 15:34:15;;;;;;;4.90;2.40;;;;;;;20.97;80.98;101985.91;20800905;28;20053;-61
2023/10/04 15:44:18;;;;;;;4.22;2.10;;;;;;;20.94;81.01;101997.00;20801503;28;20054;-63
2023/10/04 15:54:20;;;;;;;6.60;2.17;;;;;;;20.92;81.19;101987.25;20798836;28;20510;-60
2023/10/04 16:04:22;;;;;;;5.35;2.05;;;;;;;20.91;81.49;101967.47;20779532;28;20048;-60
2023/10/04 16:14:25;;;;;;;6.35;2.30;;;;;;;20.86;81.79;101967.84;20797250;28;20064;-59
2023/10/04 16:24:31;;;;;;;3.78;2.50;;;;;;;20.76;83.38;101950.66;20791080;28;20064;-60
2023/10/04 16:34:33;;;;;;;6.40;3.30;;;;;;;20.84;86.98;101963.59;20793290;28;20057;-59
2023/10/04 16:44:35;;;;;;;3.35;1.98;;;;;;;20.89;88.40;101972.16;20800069;28;20061;-59
2023/10/04 16:54:37;;;;;;;4.65;2.25;;;;;;;20.90;88.49;101967.59;20795144;28;20056;-59
2023/10/04 17:04:38;;;;;;;3.72;1.88;;;;;;;20.85;87.56;101981.53;20798413;28;20091;-62
2023/10/04 17:14:40;;;;;;;3.58;1.67;;;;;;;20.80;86.56;101975.66;20789592;28;20053;-64
2023/10/04 17:24:43;;;;;;;5.10;1.92;;;;;;;20.70;86.07;101984.50;20817908;28;20053;-61
2023/10/04 17:34:45;;;;;;;4.05;1.60;;;;;;;20.58;85.55;101989.09;20834649;28;20174;-61
2023/10/04 17:44:47;;;;;;;3.47;1.60;;;;;;;20.54;84.95;101997.59;20858941;28;20041;-60
2023/10/04 17:54:51;;;;;;;2.90;1.55;;;;;;;20.47;84.99;101993.69;20818298;28;20052;-61
2023/10/04 18:04:53;;;;;;;3.08;1.58;;;;;;;20.39;85.08;102000.59;20811098;28;20145;-61
2023/10/04 18:14:55;;;;;;;2.47;1.27;;;;;;;20.33;85.19;101990.28;20811442;28;20064;-62
2023/10/04 18:24:57;;;;;;;3.75;1.20;;;;;;;20.29;85.03;101997.75;20816112;28;20041;-60
2023/10/04 18:34:59;;;;;;;2.60;1.42;;;;;;;20.24;84.71;101982.91;20842131;28;20259;-60
2023/10/04 18:45:06;;;;;;;4.25;1.50;;;;;;;20.18;84.58;101992.38;20826516;28;20052;-59
2023/10/04 18:55:16;;;;;;;2.95;1.15;;;;;;;20.11;84.25;101983.91;20828453;28;20343;-61
2023/10/04 19:05:17;;;;;;;2.17;1.30;;;;;;;20.04;84.05;101966.47;20842024;28;20050;-60
2023/10/04 19:15:20;;;;;;;4.68;1.42;;;;;;;19.92;83.60;101956.66;20843670;28;20588;-61
2023/10/04 19:25:24;;;;;;;3.13;1.20;;;;;;;19.88;83.28;101957.84;20835446;28;20386;-60
2023/10/04 19:35:26;;;;;;;5.55;1.40;;;;;;;19.78;83.15;101941.53;20802904;28;20123;-60
2023/10/04 19:45:28;;;;;;;1.85;0.90;;;;;;;19.77;82.84;101959.56;20803536;28;20057;-60
2023/10/04 19:55:30;;;;;;;5.45;1.00;;;;;;;19.73;82.63;101949.97;20799841;28;20046;-60
2023/10/04 20:05:32;;;;;;;2.85;0.93;;;;;;;19.68;82.34;101944.09;20795026;28;20053;-60
2023/10/04 20:15:37;;;;;;;1.85;0.90;;;;;;;19.61;82.20;101922.09;20806323;28;20052;-60
2023/10/04 20:25:41;;;;;;;2.30;1.05;;;;;;;19.54;81.86;101924.47;20808476;28;20049;-62
2023/10/04 20:35:43;;;;;;;2.55;1.10;;;;;;;19.48;81.84;101918.66;20813209;28;20045;-62
2023/10/04 20:45:45;;;;;;;2.33;0.88;;;;;;;19.41;81.31;101894.00;20815671;28;20160;-63
2023/10/04 20:55:46;;;;;;;2.55;1.30;;;;;;;19.36;81.04;101880.00;20844839;28;20049;-62
2023/10/04 21:05:49;;;;;;;3.15;1.02;;;;;;;19.31;81.04;101872.28;20820329;28;20049;-63
2023/10/04 21:15:51;;;;;;;1.63;0.88;;;;;;;19.26;80.94;101842.09;20810613;28;20049;-62
2023/10/04 21:25:53;;;;;;;1.42;0.90;;;;;;;19.22;80.64;101836.06;20809243;28;20077;-62
2023/10/04 21:36:07;;;;;;;1.77;0.98;;;;;;;19.19;80.44;101852.50;20807468;28;20571;-61
2023/10/04 21:46:10;;;;;;;2.00;0.80;;;;;;;19.18;80.24;101839.13;20806699;28;20053;-62
2023/10/04 21:56:12;;;;;;;2.83;1.10;;;;;;;19.15;80.18;101844.78;20819565;28;20134;-62
2023/10/04 22:06:17;;;;;;;2.38;0.90;;;;;;;19.12;79.87;101835.09;20809868;28;20053;-62
2023/10/04 22:16:20;;;;;;;1.83;0.80;;;;;;;19.04;79.84;101810.56;20790037;28;20408;-62
2023/10/04 22:26:22;;;;;;;1.30;0.82;;;;;;;19.13;79.84;101801.72;20791733;28;20050;-62
2023/10/04 22:36:24;;;;;;;2.40;0.90;;;;;;;19.11;79.56;101782.94;20799052;28;20049;-62
2023/10/04 22:46:37;;;;;;;2.80;1.08;;;;;;;19.15;79.33;101772.75;20792486;28;20077;-62
2023/10/04 22:56:41;;;;;;;1.50;0.90;;;;;;;19.15;79.52;101772.75;20797898;28;20053;-62
2023/10/04 23:06:43;;;;;;;1.67;0.70;;;;;;;19.13;79.47;101766.63;20804463;28;20068;-62
2023/10/04 23:16:45;;;;;;;1.30;0.70;;;;;;;19.08;79.19;101760.75;20803624;28;20053;-62
2023/10/04 23:26:47;;;;;;;2.33;0.80;;;;;;;19.11;79.27;101772.13;20795168;28;20276;-62
2023/10/04 23:36:49;;;;;;;1.35;0.80;;;;;;;19.10;79.24;101769.59;20789820;28;20054;-62
2023/10/04 23:46:57;;;;;;;2.10;0.95;;;;;;;18.98;79.38;101752.53;20808053;28;20049;-62
2023/10/04 23:57:01;;;;;;;1.85;0.88;;;;;;;19.06;79.42;101765.41;20815084;28;20611;-61
